Time;durP1;ratioP1;P1;durP2;ratioP2;P2;SDS_P1;SDS_P2;PMS_P1;PMS_P2;Temp;Humidity;BMP_temperature;BMP_pressure;BME280_temperature;BME280_humidity;BME280_pressure;Samples;Min_cycle;Max_cycle;Signal;HPM_P1;HPM_P2
2022/09/08 00:00:13;;;;;;;19.45;17.00;;;16.90;99.90;;;;;;5115956;28;20040;-66
2022/09/08 00:02:39;;;;;;;17.75;15.98;;;16.90;99.90;;;;;;5102845;28;20043;-65
2022/09/08 00:05:07;;;;;;;16.85;15.25;;;16.90;99.90;;;;;;5113631;27;20078;-64
2022/09/08 00:07:35;;;;;;;18.50;16.75;;;16.90;99.90;;;;;;5113719;27;20435;-67
2022/09/08 00:10:02;;;;;;;18.13;16.45;;;16.90;99.90;;;;;;5121371;27;20074;-66
2022/09/08 00:12:28;;;;;;;18.27;16.48;;;16.90;99.90;;;;;;5129778;27;20042;-66
2022/09/08 00:14:56;;;;;;;20.95;18.83;;;16.90;99.90;;;;;;5109861;28;20055;-66
2022/09/08 00:17:22;;;;;;;20.73;18.80;;;16.90;99.90;;;;;;5113644;27;20053;-66
2022/09/08 00:19:48;;;;;;;20.42;18.42;;;16.90;99.90;;;;;;5130600;27;20497;-66
2022/09/08 00:22:13;;;;;;;19.98;18.15;;;16.90;99.90;;;;;;5118680;27;20101;-66
2022/09/08 00:24:39;;;;;;;20.42;18.27;;;16.90;99.90;;;;;;5107446;27;20122;-66
2022/09/08 00:27:05;;;;;;;19.92;17.92;;;16.90;99.90;;;;;;5112515;28;20050;-66
2022/09/08 00:29:30;;;;;;;21.13;19.23;;;16.90;99.90;;;;;;5120524;27;20046;-66
2022/09/08 00:31:56;;;;;;;21.40;19.15;;;16.80;99.90;;;;;;5122244;27;20074;-67
2022/09/08 00:34:22;;;;;;;23.17;20.85;;;16.90;99.90;;;;;;5117026;27;20390;-66
2022/09/08 00:36:47;;;;;;;21.95;19.77;;;16.90;99.90;;;;;;5129413;27;20039;-68
2022/09/08 00:39:15;;;;;;;23.38;21.25;;;16.80;99.90;;;;;;5130866;27;20188;-65
2022/09/08 00:41:41;;;;;;;26.48;22.25;;;16.80;99.90;;;;;;5113897;28;20039;-67
2022/09/08 00:44:35;;;;;;;25.15;22.80;;;16.80;99.90;;;;;;5107852;27;20056;-66
2022/09/08 00:47:02;;;;;;;25.35;22.92;;;16.80;99.90;;;;;;5109987;28;20398;-66
2022/09/08 00:49:28;;;;;;;27.27;24.67;;;16.80;99.90;;;;;;5127603;27;20043;-66
2022/09/08 00:51:57;;;;;;;25.60;23.30;;;16.80;99.90;;;;;;5129650;27;20051;-66
2022/09/08 00:54:25;;;;;;;26.20;23.77;;;16.80;99.90;;;;;;5128592;27;20038;-66
2022/09/08 00:56:52;;;;;;;27.10;24.35;;;16.90;99.90;;;;;;5110850;28;20553;-66
2022/09/08 00:59:20;;;;;;;29.08;26.13;;;16.90;99.90;;;;;;5109163;28;20035;-68
2022/09/08 01:01:46;;;;;;;30.58;27.48;;;16.90;99.90;;;;;;5132258;27;20389;-65
2022/09/08 01:04:13;;;;;;;27.42;24.73;;;16.90;99.90;;;;;;5121494;27;20035;-67
2022/09/08 01:12:53;;;;;;;30.33;27.25;;;16.90;99.90;;;;;;5130678;27;20047;-67
2022/09/08 01:15:25;;;;;;;32.05;28.85;;;16.90;99.90;;;;;;5113182;27;20083;-66
2022/09/08 01:17:54;;;;;;;32.50;29.40;;;16.90;99.90;;;;;;5095834;28;20046;-65
2022/09/08 01:20:34;;;;;;;30.88;28.10;;;16.90;99.90;;;;;;5131623;27;20100;-65
2022/09/08 01:23:24;;;;;;;33.25;30.05;;;16.90;99.90;;;;;;5088783;28;20047;-66
2022/09/08 01:26:12;;;;;;;33.22;30.13;;;16.90;99.90;;;;;;5120833;27;20031;-65
2022/09/08 01:28:46;;;;;;;31.60;28.70;;;17.00;99.90;;;;;;5105028;28;20036;-65
2022/09/08 01:31:12;;;;;;;31.45;28.42;;;17.00;99.90;;;;;;5111722;28;20445;-65
2022/09/08 01:33:39;;;;;;;30.65;27.85;;;17.00;99.90;;;;;;5117286;27;20040;-66
2022/09/08 01:36:14;;;;;;;33.05;29.63;;;17.00;99.90;;;;;;5129389;27;20036;-66
2022/09/08 01:38:40;;;;;;;33.10;29.60;;;17.10;99.90;;;;;;5099154;28;20564;-66
2022/09/08 01:41:06;;;;;;;33.95;30.60;;;17.10;99.90;;;;;;5105576;28;20123;-67
2022/09/08 01:43:32;;;;;;;33.17;29.85;;;17.10;99.90;;;;;;5115491;27;20115;-67
2022/09/08 01:45:58;;;;;;;34.83;31.13;;;17.10;99.90;;;;;;5108709;28;20111;-67
2022/09/08 01:48:24;;;;;;;36.75;33.22;;;17.10;99.90;;;;;;5120642;27;20469;-67
2022/09/08 01:50:50;;;;;;;32.25;29.10;;;17.10;99.90;;;;;;5112254;27;20039;-66
2022/09/08 01:53:17;;;;;;;37.53;33.63;;;17.10;99.90;;;;;;5109505;28;20051;-67
2022/09/08 01:55:44;;;;;;;35.78;32.05;;;17.10;99.90;;;;;;5125836;27;20043;-65
2022/09/08 01:58:09;;;;;;;34.45;31.00;;;17.10;99.90;;;;;;5122546;27;20040;-68
2022/09/08 02:00:35;;;;;;;36.03;32.38;;;17.00;99.90;;;;;;5106936;28;20123;-66
2022/09/08 02:03:00;;;;;;;36.58;32.88;;;17.10;99.90;;;;;;5127124;27;20050;-67
2022/09/08 02:05:27;;;;;;;33.63;30.33;;;17.10;99.90;;;;;;5108952;28;20044;-66
2022/09/08 02:07:52;;;;;;;37.35;33.70;;;17.10;99.90;;;;;;5109544;27;20387;-67
2022/09/08 02:10:18;;;;;;;37.05;33.15;;;17.10;99.90;;;;;;5108470;27;20069;-67
2022/09/08 02:12:44;;;;;;;34.92;31.55;;;17.10;99.90;;;;;;5128799;27;20087;-66
2022/09/08 02:15:11;;;;;;;36.58;33.00;;;17.10;99.90;;;;;;5117787;27;20135;-66
2022/09/08 02:17:36;;;;;;;36.42;32.75;;;17.10;99.90;;;;;;5102966;27;20122;-66
2022/09/08 02:20:02;;;;;;;38.40;34.50;;;17.10;99.90;;;;;;5129696;27;20114;-66
2022/09/08 02:22:28;;;;;;;36.65;32.92;;;17.10;99.90;;;;;;5110293;27;20031;-67
2022/09/08 02:24:53;;;;;;;39.60;35.83;;;17.10;99.90;;;;;;5105354;28;20047;-67
2022/09/08 02:27:19;;;;;;;35.47;32.08;;;17.10;99.90;;;;;;5116628;27;20092;-64
2022/09/08 02:29:45;;;;;;;35.17;31.77;;;17.10;99.90;;;;;;5094204;27;20075;-68
2022/09/08 02:32:11;;;;;;;38.67;34.83;;;17.10;99.90;;;;;;5112823;27;20054;-68
2022/09/08 02:34:36;;;;;;;37.55;33.92;;;17.10;99.90;;;;;;5115286;27;20039;-67
2022/09/08 02:37:02;;;;;;;35.45;31.85;;;17.10;99.90;;;;;;5126859;27;20035;-66
2022/09/08 02:39:28;;;;;;;37.47;33.85;;;17.20;99.90;;;;;;5108716;28;20048;-67
2022/09/08 02:41:54;;;;;;;36.80;33.30;;;17.20;99.90;;;;;;5128510;27;20027;-65
2022/09/08 02:44:20;;;;;;;37.08;33.38;;;17.20;99.90;;;;;;5123334;27;20428;-67
2022/09/08 02:46:45;;;;;;;38.08;34.33;;;17.20;99.90;;;;;;5108558;28;20436;-67
2022/09/08 02:49:12;;;;;;;36.47;32.83;;;17.20;99.90;;;;;;5090205;28;20063;-66
2022/09/08 02:51:38;;;;;;;34.63;31.33;;;17.20;99.90;;;;;;5109650;28;20047;-65
2022/09/08 02:54:04;;;;;;;36.88;32.92;;;17.20;99.90;;;;;;5129191;27;20043;-66
2022/09/08 02:56:30;;;;;;;34.13;30.83;;;17.30;99.90;;;;;;5109084;28;20092;-66
2022/09/08 02:58:55;;;;;;;37.83;34.13;;;17.30;99.90;;;;;;5118411;27;20063;-65
2022/09/08 03:01:21;;;;;;;35.75;32.08;;;17.20;99.90;;;;;;5108030;28;20043;-66
2022/09/08 03:03:47;;;;;;;36.25;32.60;;;17.30;99.90;;;;;;5091069;28;20565;-65
2022/09/08 03:06:14;;;;;;;37.10;33.38;;;17.30;99.90;;;;;;5110104;28;20111;-68
2022/09/08 03:08:40;;;;;;;37.80;33.95;;;17.30;99.90;;;;;;5125943;27;20051;-66
2022/09/08 03:11:06;;;;;;;35.20;31.52;;;17.30;99.90;;;;;;5124141;27;20036;-67
2022/09/08 03:13:32;;;;;;;36.03;32.38;;;17.30;99.90;;;;;;5107039;27;20070;-66
2022/09/08 03:15:57;;;;;;;37.55;33.95;;;17.30;99.90;;;;;;5109078;28;20069;-66
2022/09/08 03:18:24;;;;;;;33.20;30.00;;;17.30;99.90;;;;;;5111581;28;20054;-67
2022/09/08 03:21:06;;;;;;;35.35;31.98;;;17.30;99.90;;;;;;5112239;28;20031;-68
2022/09/08 03:23:33;;;;;;;33.85;30.50;;;17.40;99.90;;;;;;5126059;28;20064;-67
2022/09/08 03:26:09;;;;;;;34.63;31.30;;;17.40;99.90;;;;;;5097718;28;20130;-64
2022/09/08 03:28:35;;;;;;;36.30;32.58;;;17.40;99.90;;;;;;5118909;28;20039;-65
2022/09/08 03:31:00;;;;;;;40.42;36.20;;;17.40;99.90;;;;;;5122264;27;20497;-66
2022/09/08 03:33:28;;;;;;;41.53;37.42;;;17.30;99.90;;;;;;5119982;28;20127;-66
2022/09/08 03:35:54;;;;;;;39.67;35.53;;;17.20;99.90;;;;;;5128637;27;20035;-66
2022/09/08 03:38:20;;;;;;;44.05;39.30;;;17.30;99.90;;;;;;5117456;27;20374;-65
2022/09/08 03:40:46;;;;;;;40.63;36.72;;;17.20;99.90;;;;;;5130899;27;20031;-67
2022/09/08 03:43:12;;;;;;;41.13;37.05;;;17.20;99.90;;;;;;5116111;27;20043;-65
2022/09/08 03:45:45;;;;;;;41.78;37.67;;;17.30;99.90;;;;;;5105379;28;20078;-66
2022/09/08 03:48:12;;;;;;;41.30;36.90;;;17.30;99.90;;;;;;5110592;28;20047;-66
2022/09/08 03:50:37;;;;;;;38.67;34.83;;;17.30;99.90;;;;;;5129876;27;20042;-67
2022/09/08 03:53:03;;;;;;;40.17;36.35;;;17.30;99.90;;;;;;5127636;27;20058;-66
2022/09/08 03:55:29;;;;;;;39.05;35.28;;;17.30;99.90;;;;;;5132277;27;20039;-66
2022/09/08 03:57:54;;;;;;;40.90;36.70;;;17.30;99.90;;;;;;5112172;27;20050;-65
2022/09/08 04:00:20;;;;;;;41.70;37.38;;;17.30;99.90;;;;;;5108798;27;20122;-67
2022/09/08 04:02:46;;;;;;;37.67;33.95;;;17.30;99.90;;;;;;5111665;28;20075;-66
2022/09/08 04:05:12;;;;;;;36.78;33.20;;;17.30;99.90;;;;;;5112757;28;20031;-66
2022/09/08 04:07:38;;;;;;;35.95;32.63;;;17.30;99.90;;;;;;5132474;27;20043;-65
2022/09/08 04:10:06;;;;;;;39.00;35.10;;;17.30;99.90;;;;;;5109833;27;20127;-66
2022/09/08 04:12:33;;;;;;;39.35;35.65;;;17.30;99.90;;;;;;5128598;27;20036;-66
2022/09/08 04:14:59;;;;;;;38.63;34.78;;;17.30;99.90;;;;;;5110548;28;20067;-65
2022/09/08 04:17:24;;;;;;;36.67;33.15;;;17.30;99.90;;;;;;5115967;27;20464;-65
2022/09/08 04:19:51;;;;;;;35.95;32.50;;;17.20;99.90;;;;;;5116328;27;20042;-67
2022/09/08 04:22:19;;;;;;;38.85;35.15;;;17.20;99.90;;;;;;5109035;28;20031;-67
2022/09/08 04:24:45;;;;;;;38.00;34.50;;;17.20;99.90;;;;;;5132969;27;20110;-67
2022/09/08 04:27:12;;;;;;;42.60;38.42;;;17.10;99.90;;;;;;5114674;27;20397;-64
2022/09/08 04:29:38;;;;;;;39.92;36.15;;;17.10;99.90;;;;;;5105944;28;20043;-66
2022/09/08 04:32:04;;;;;;;40.00;36.03;;;17.10;99.90;;;;;;5112295;28;20035;-66
2022/09/08 04:34:30;;;;;;;41.10;37.08;;;17.10;99.90;;;;;;5116576;27;20093;-65
2022/09/08 04:36:56;;;;;;;41.30;37.00;;;17.20;99.90;;;;;;5129870;27;20051;-65
2022/09/08 04:39:21;;;;;;;40.97;37.05;;;17.20;99.90;;;;;;5118452;27;20038;-66
2022/09/08 04:41:47;;;;;;;40.25;36.20;;;17.20;99.90;;;;;;5123730;27;20038;-67
2022/09/08 04:44:13;;;;;;;38.92;35.25;;;17.20;99.90;;;;;;5131668;27;20047;-65
2022/09/08 04:46:39;;;;;;;39.40;35.65;;;17.20;99.90;;;;;;5124833;27;20398;-67
2022/09/08 04:49:05;;;;;;;40.58;36.58;;;17.20;99.90;;;;;;5123934;27;20055;-67
2022/09/08 04:51:32;;;;;;;39.35;35.58;;;17.20;99.90;;;;;;5113430;28;20454;-65
2022/09/08 04:53:59;;;;;;;40.75;36.75;;;17.20;99.90;;;;;;5120621;27;20028;-67
2022/09/08 04:56:26;;;;;;;43.58;39.28;;;17.20;99.90;;;;;;5129681;27;20087;-67
2022/09/08 04:58:53;;;;;;;44.58;40.10;;;17.20;99.90;;;;;;5119070;27;20447;-65
2022/09/08 05:01:26;;;;;;;42.03;37.67;;;17.20;99.90;;;;;;5093440;28;20122;-66
2022/09/08 05:03:53;;;;;;;42.50;38.47;;;17.10;99.90;;;;;;5118930;27;20040;-66
2022/09/08 05:06:20;;;;;;;47.58;39.50;;;17.10;99.90;;;;;;5118013;27;20431;-65
2022/09/08 05:08:48;;;;;;;50.88;43.60;;;17.10;99.90;;;;;;5123093;27;20040;-65
2022/09/08 05:11:15;;;;;;;45.17;40.63;;;17.10;99.90;;;;;;5109494;28;20055;-67
2022/09/08 05:13:41;;;;;;;44.15;39.58;;;17.10;99.90;;;;;;5120659;27;20050;-67
2022/09/08 05:16:12;;;;;;;45.05;40.53;;;17.00;99.90;;;;;;5116131;27;20054;-66
2022/09/08 05:18:38;;;;;;;47.83;43.13;;;17.00;99.90;;;;;;5129934;27;20057;-66
2022/09/08 05:21:05;;;;;;;47.42;42.50;;;17.00;99.90;;;;;;5119569;27;20054;-67
2022/09/08 05:23:30;;;;;;;45.60;41.10;;;17.00;99.90;;;;;;5107043;28;20046;-67
2022/09/08 05:26:01;;;;;;;44.63;40.10;;;17.00;99.90;;;;;;5110546;28;20039;-67
2022/09/08 05:28:29;;;;;;;44.65;40.00;;;17.00;99.90;;;;;;5097078;28;20040;-65
2022/09/08 05:30:56;;;;;;;46.78;42.08;;;17.00;99.90;;;;;;5110989;28;20474;-66
2022/09/08 05:33:22;;;;;;;45.78;41.17;;;17.00;99.90;;;;;;5101996;28;20040;-67
2022/09/08 05:35:49;;;;;;;49.42;44.35;;;17.00;99.90;;;;;;5127311;27;20043;-65
2022/09/08 05:38:15;;;;;;;49.20;44.25;;;17.00;99.90;;;;;;5115214;27;20051;-67
2022/09/08 05:40:40;;;;;;;43.50;39.15;;;17.10;99.90;;;;;;5129518;27;20469;-67
2022/09/08 05:43:06;;;;;;;45.55;40.92;;;17.10;99.90;;;;;;5107157;28;20048;-66
2022/09/08 05:45:32;;;;;;;48.40;43.30;;;17.10;99.90;;;;;;5093902;28;20101;-67
2022/09/08 05:47:58;;;;;;;50.17;44.75;;;17.00;99.90;;;;;;5131107;27;20047;-67
2022/09/08 05:50:23;;;;;;;48.28;43.35;;;17.00;99.90;;;;;;5111944;27;20047;-67
2022/09/08 05:52:49;;;;;;;46.17;41.47;;;17.00;99.90;;;;;;5129825;27;20035;-67
2022/09/08 05:55:15;;;;;;;47.30;42.42;;;17.00;99.90;;;;;;5111709;27;20042;-67
2022/09/08 05:57:41;;;;;;;46.63;41.97;;;17.00;99.90;;;;;;5108941;28;20077;-65
2022/09/08 06:00:10;;;;;;;50.22;44.72;;;17.00;99.90;;;;;;5110127;27;20452;-68
2022/09/08 06:02:36;;;;;;;47.70;42.50;;;17.10;99.90;;;;;;5110619;28;20071;-67
2022/09/08 06:05:03;;;;;;;48.47;43.47;;;17.10;99.90;;;;;;5106334;28;20490;-68
2022/09/08 06:07:28;;;;;;;47.70;42.83;;;17.10;99.90;;;;;;5128553;27;20035;-66
2022/09/08 06:09:54;;;;;;;50.35;45.15;;;17.10;99.90;;;;;;5105424;27;20051;-66
2022/09/08 06:12:20;;;;;;;49.13;44.03;;;17.10;99.90;;;;;;5111772;27;20036;-66
2022/09/08 06:14:45;;;;;;;47.60;42.78;;;17.10;99.90;;;;;;5127558;27;20092;-67
2022/09/08 06:17:11;;;;;;;50.65;45.47;;;17.10;99.90;;;;;;5122422;27;20086;-67
2022/09/08 06:19:37;;;;;;;51.03;45.65;;;17.20;99.90;;;;;;5128176;27;20031;-67
2022/09/08 06:22:03;;;;;;;47.15;42.35;;;17.10;99.90;;;;;;5108831;28;20039;-67
2022/09/08 06:24:29;;;;;;;48.42;43.20;;;17.10;99.90;;;;;;5113671;27;20447;-67
2022/09/08 06:27:18;;;;;;;50.75;44.10;;;17.10;99.90;;;;;;5104061;28;20051;-70
2022/09/08 06:29:54;;;;;;;48.55;43.35;;;17.10;99.90;;;;;;5116441;27;20096;-66
2022/09/08 06:32:34;;;;;;;45.15;40.33;;;17.10;99.90;;;;;;5109801;28;20043;-68
2022/09/08 06:35:18;;;;;;;44.40;39.72;;;17.10;99.90;;;;;;5108209;28;20044;-70
2022/09/08 06:37:53;;;;;;;44.40;39.63;;;17.10;99.90;;;;;;5118602;27;20084;-66
2022/09/08 06:40:26;;;;;;;45.72;40.85;;;17.10;99.90;;;;;;5119481;27;20397;-67
2022/09/08 06:43:01;;;;;;;50.70;43.83;;;17.20;99.90;;;;;;5129940;27;20035;-67
2022/09/08 06:45:44;;;;;;;45.72;40.83;;;17.20;99.90;;;;;;5119554;27;20032;-66
2022/09/08 06:48:30;;;;;;;43.75;38.97;;;17.20;99.90;;;;;;5109700;28;20052;-69
2022/09/08 06:51:24;;;;;;;43.00;38.53;;;17.20;99.90;;;;;;5113732;27;20486;-67
2022/09/08 06:53:49;;;;;;;43.25;38.75;;;17.20;99.90;;;;;;5129131;27;20443;-65
2022/09/08 06:56:30;;;;;;;47.15;42.17;;;17.20;99.90;;;;;;5105604;28;20047;-67
2022/09/08 06:59:01;;;;;;;53.42;43.05;;;17.20;99.90;;;;;;5126017;27;20127;-67
2022/09/08 07:01:40;;;;;;;47.30;41.93;;;17.20;99.90;;;;;;5114749;27;20069;-67
2022/09/08 07:04:35;;;;;;;45.40;40.63;;;17.20;99.90;;;;;;5114978;27;20044;-68
2022/09/08 07:07:19;;;;;;;44.00;39.38;;;17.20;99.90;;;;;;5107566;27;20039;-68
2022/09/08 07:09:57;;;;;;;35.72;31.92;;;17.10;99.90;;;;;;5093914;28;20494;-66
2022/09/08 07:12:38;;;;;;;33.70;30.10;;;17.10;99.90;;;;;;5111993;28;20465;-66
2022/09/08 07:15:25;;;;;;;31.35;27.63;;;17.10;99.90;;;;;;5129426;27;20054;-66
2022/09/08 07:17:58;;;;;;;29.63;24.38;;;17.10;99.90;;;;;;5107028;28;20113;-67
2022/09/08 07:20:27;;;;;;;22.65;19.50;;;17.10;99.90;;;;;;5128002;28;20447;-67
2022/09/08 07:23:25;;;;;;;19.35;15.07;;;17.10;99.90;;;;;;5106340;28;20084;-66
2022/09/08 07:25:59;;;;;;;16.45;13.80;;;17.00;99.90;;;;;;5106433;28;20089;-66
2022/09/08 07:28:29;;;;;;;16.38;12.63;;;17.00;99.90;;;;;;5124455;28;20054;-65
2022/09/08 07:31:02;;;;;;;14.48;11.75;;;17.00;99.90;;;;;;5110457;28;20517;-66
2022/09/08 07:33:44;;;;;;;15.30;12.38;;;17.10;99.90;;;;;;5103801;28;20052;-67
2022/09/08 07:36:13;;;;;;;15.93;11.55;;;17.10;99.90;;;;;;5129280;28;20122;-66
2022/09/08 07:38:49;;;;;;;13.70;8.98;;;17.10;99.90;;;;;;5115130;28;20044;-67
2022/09/08 07:41:42;;;;;;;12.68;7.32;;;17.10;99.90;;;;;;5110638;28;20114;-68
2022/09/08 07:44:16;;;;;;;11.50;6.78;;;17.10;99.90;;;;;;5109214;28;20394;-66
2022/09/08 07:46:52;;;;;;;11.05;6.53;;;17.10;99.90;;;;;;5108219;28;20120;-68
2022/09/08 07:49:52;;;;;;;9.38;6.53;;;17.10;99.90;;;;;;5126803;28;20043;-66
2022/09/08 07:52:26;;;;;;;7.82;5.82;;;17.00;99.90;;;;;;5106744;28;20477;-68
2022/09/08 07:55:01;;;;;;;9.55;6.13;;;17.00;99.90;;;;;;5123656;28;20420;-67
2022/09/08 07:58:03;;;;;;;6.90;5.75;;;17.00;99.90;;;;;;5127956;28;20097;-66
2022/09/08 08:00:44;;;;;;;9.82;6.32;;;17.00;99.90;;;;;;5113223;28;20050;-68
2022/09/08 08:03:45;;;;;;;8.98;6.28;;;17.00;99.90;;;;;;5105586;28;20043;-67
2022/09/08 08:06:47;;;;;;;7.88;5.70;;;17.00;99.90;;;;;;5094836;27;20054;-68
2022/09/08 08:09:40;;;;;;;11.18;6.22;;;17.00;99.90;;;;;;5009684;28;20263;-67
2022/09/08 08:12:29;;;;;;;8.27;5.45;;;17.00;99.90;;;;;;4990788;28;20057;-66
2022/09/08 08:15:03;;;;;;;10.55;6.05;;;17.00;99.90;;;;;;5008576;28;20496;-66
2022/09/08 08:17:47;;;;;;;8.88;5.80;;;17.00;99.90;;;;;;5010613;28;20038;-68
2022/09/08 08:20:18;;;;;;;9.98;6.00;;;17.00;99.90;;;;;;4993735;28;20531;-68
2022/09/08 08:23:00;;;;;;;9.13;6.20;;;17.00;99.90;;;;;;5009624;28;20370;-68
2022/09/08 08:25:29;;;;;;;;;;;17.00;99.90;;;;;;5015019;28;20046;-66
2022/09/08 08:27:55;;;;;;;12.10;6.28;;;17.00;99.90;;;;;;5013646;28;20031;-66
2022/09/08 08:30:23;;;;;;;10.48;6.57;;;17.00;99.90;;;;;;5013677;28;20110;-66
2022/09/08 08:32:49;;;;;;;9.48;7.32;;;17.00;99.90;;;;;;4993895;28;20054;-65
2022/09/08 08:35:56;;;;;;;9.50;6.85;;;17.00;99.90;;;;;;5014339;28;20450;-65
2022/09/08 08:38:31;;;;;;;9.68;6.60;;;17.00;99.90;;;;;;4938729;28;20101;-66
2022/09/08 08:40:59;;;;;;;9.90;6.30;;;17.00;99.90;;;;;;4955553;28;20142;-68
2022/09/08 08:43:27;;;;;;;9.98;6.95;;;17.00;99.90;;;;;;4935896;28;20059;-67
2022/09/08 08:46:21;;;;;;;11.70;7.47;;;17.00;99.90;;;;;;4988446;28;20150;-66
2022/09/08 08:49:09;;;;;;;10.32;7.10;;;17.00;99.90;;;;;;5049855;28;20067;-67
2022/09/08 08:51:37;;;;;;;9.82;6.60;;;17.00;99.90;;;;;;5052268;28;20044;-66
2022/09/08 08:54:30;;;;;;;9.20;6.78;;;17.00;99.90;;;;;;5047936;28;20070;-68
2022/09/08 08:56:57;;;;;;;;;;;17.00;99.90;;;;;;5053587;28;20084;-65
2022/09/08 08:59:57;;;;;;;8.95;6.68;;;17.00;99.90;;;;;;5034640;28;19921;-65
2022/09/08 09:02:59;;;;;;;12.25;8.13;;;17.00;99.90;;;;;;5053063;28;20056;-67
2022/09/08 09:05:36;;;;;;;11.25;7.75;;;17.00;99.90;;;;;;5052401;28;20036;-67
2022/09/08 09:08:27;;;;;;;9.52;7.10;;;16.90;99.90;;;;;;5052077;28;20051;-68
2022/09/08 09:11:28;;;;;;;10.27;6.55;;;16.90;99.90;;;;;;5051174;28;20506;-65
2022/09/08 09:14:23;;;;;;;10.20;6.70;;;16.80;99.90;;;;;;5068866;28;20044;-66
2022/09/08 09:17:15;;;;;;;7.60;6.00;;;16.80;99.90;;;;;;5047860;28;20128;-68
2022/09/08 09:20:03;;;;;;;8.60;7.00;;;16.80;99.90;;;;;;5030556;28;20376;-67
2022/09/08 09:22:37;;;;;;;10.15;6.30;;;16.80;99.90;;;;;;5032309;28;20163;-66
2022/09/08 09:25:28;;;;;;;12.40;6.80;;;16.70;99.90;;;;;;5033119;28;20519;-68
2022/09/08 09:28:05;;;;;;;6.13;5.53;;;16.70;99.90;;;;;;5032452;28;20136;-67
2022/09/08 09:30:52;;;;;;;9.57;6.57;;;16.70;99.90;;;;;;5011451;28;20037;-67
2022/09/08 09:33:55;;;;;;;9.65;5.35;;;16.70;99.90;;;;;;5032329;28;20033;-66
2022/09/08 09:36:47;;;;;;;8.95;6.43;;;16.70;99.90;;;;;;5030245;28;20047;-69
2022/09/08 09:39:38;;;;;;;6.53;4.88;;;16.70;99.90;;;;;;5031915;28;20079;-70
2022/09/08 09:42:31;;;;;;;6.72;4.88;;;16.60;99.90;;;;;;5030626;28;20542;-67
2022/09/08 09:45:05;;;;;;;13.27;5.20;;;16.60;99.90;;;;;;5031560;28;20068;-68
2022/09/08 09:47:47;;;;;;;7.10;4.75;;;16.60;99.90;;;;;;5032162;28;20080;-69
2022/09/08 09:50:43;;;;;;;7.20;4.75;;;16.50;99.90;;;;;;5031236;28;20045;-67
2022/09/08 09:53:40;;;;;;;5.63;4.32;;;16.50;99.90;;;;;;5048464;27;20043;-69
2022/09/08 09:56:44;;;;;;;6.00;4.43;;;16.50;99.90;;;;;;5111440;27;20041;-66
2022/09/08 09:59:44;;;;;;;6.50;4.88;;;16.40;99.90;;;;;;5117905;27;20428;-68
2022/09/08 10:02:34;;;;;;;8.18;4.80;;;16.40;99.90;;;;;;5105103;28;20100;-67
2022/09/08 10:05:27;;;;;;;6.60;5.25;;;16.30;99.90;;;;;;5114935;27;20039;-67
2022/09/08 10:08:30;;;;;;;5.68;4.95;;;16.30;99.90;;;;;;5128406;27;20047;-66
2022/09/08 10:11:01;;;;;;;9.25;4.95;;;16.20;99.90;;;;;;5113656;27;20042;-66
2022/09/08 10:13:33;;;;;;;6.78;4.55;;;16.20;99.90;;;;;;5105464;27;20039;-67
2022/09/08 10:16:29;;;;;;;7.45;4.60;;;16.20;99.90;;;;;;5109092;27;20343;-69
2022/09/08 10:19:32;;;;;;;5.22;3.97;;;16.20;99.90;;;;;;5109767;28;20413;-65
2022/09/08 10:22:10;;;;;;;5.75;4.03;;;16.20;99.90;;;;;;5112378;27;20469;-67
2022/09/08 10:24:38;;;;;;;6.18;4.88;;;16.10;99.90;;;;;;5110082;28;20031;-68
2022/09/08 10:27:32;;;;;;;7.05;5.18;;;16.20;99.90;;;;;;5092869;28;20043;-69
2022/09/08 10:30:20;;;;;;;5.97;5.00;;;16.20;99.90;;;;;;5105022;28;20101;-66
2022/09/08 10:33:25;;;;;;;6.57;5.22;;;16.20;99.90;;;;;;5095487;27;20059;-66
2022/09/08 10:36:02;;;;;;;7.13;5.00;;;16.20;99.90;;;;;;5115670;27;20043;-69
2022/09/08 10:38:53;;;;;;;5.47;4.95;;;16.20;99.90;;;;;;5121130;27;20370;-69
2022/09/08 10:41:50;;;;;;;5.25;4.72;;;16.20;99.90;;;;;;5130448;27;20042;-67
2022/09/08 10:44:41;;;;;;;4.30;3.90;;;16.30;99.90;;;;;;5106678;27;20079;-68
2022/09/08 10:47:18;;;;;;;5.95;4.28;;;16.30;99.90;;;;;;5109327;28;20132;-67
2022/09/08 10:49:57;;;;;;;5.00;4.10;;;16.30;99.90;;;;;;5109496;28;20058;-67
2022/09/08 10:52:37;;;;;;;4.95;3.88;;;16.30;99.90;;;;;;5109175;28;20045;-68
2022/09/08 10:55:27;;;;;;;4.13;3.67;;;16.30;99.90;;;;;;5127392;27;20063;-66
2022/09/08 10:57:58;;;;;;;4.82;3.80;;;16.40;99.90;;;;;;5130552;27;20405;-67
2022/09/08 11:00:30;;;;;;;5.15;3.80;;;16.40;99.90;;;;;;5130386;27;20545;-66
2022/09/08 11:03:15;;;;;;;;;;;16.40;99.90;;;;;;5130826;27;20110;-66
2022/09/08 11:05:50;;;;;;;4.20;3.80;;;16.50;99.90;;;;;;5131784;27;19968;-67
2022/09/08 11:08:21;;;;;;;4.78;3.63;;;16.50;99.90;;;;;;5130287;27;20049;-68
2022/09/08 11:11:29;;;;;;;4.95;4.18;;;16.60;99.90;;;;;;5130609;27;20031;-67
2022/09/08 11:14:15;;;;;;;4.90;3.63;;;16.60;99.90;;;;;;5130349;27;20080;-67
2022/09/08 11:16:59;;;;;;;6.15;4.40;;;16.70;99.90;;;;;;5130657;27;20121;-66
2022/09/08 11:19:36;;;;;;;4.60;4.13;;;16.70;99.90;;;;;;5129865;27;20035;-67
2022/09/08 11:22:05;;;;;;;5.60;4.07;;;16.80;99.90;;;;;;5130259;28;20043;-67
2022/09/08 11:25:06;;;;;;;4.55;4.15;;;16.90;99.90;;;;;;5130076;27;20037;-66
2022/09/08 11:28:06;;;;;;;5.35;4.85;;;16.90;99.90;;;;;;5031193;28;20045;-65
2022/09/08 11:30:40;;;;;;;6.15;5.45;;;17.00;99.90;;;;;;5031315;28;20049;-67
2022/09/08 11:33:17;;;;;;;7.25;5.93;;;17.10;99.90;;;;;;5048282;28;20041;-66
2022/09/08 11:35:54;;;;;;;6.70;6.00;;;17.10;99.90;;;;;;5031380;28;20055;-67
2022/09/08 11:38:45;;;;;;;7.68;6.22;;;17.20;99.90;;;;;;5031143;28;20057;-68
2022/09/08 11:41:30;;;;;;;8.50;6.97;;;17.20;99.90;;;;;;5031221;28;20068;-67
2022/09/08 11:43:56;;;;;;;8.40;7.15;;;17.20;99.90;;;;;;5023214;28;20038;-66
2022/09/08 11:46:56;;;;;;;8.95;7.78;;;17.30;99.90;;;;;;5011448;28;20058;-67
2022/09/08 11:49:53;;;;;;;8.48;7.68;;;17.40;99.90;;;;;;4936945;28;20055;-67
2022/09/08 11:52:45;;;;;;;8.70;7.53;;;17.40;99.90;;;;;;4969051;28;20141;-67
2022/09/08 11:55:31;;;;;;;9.60;8.07;;;17.40;99.90;;;;;;4953173;28;20051;-68
2022/09/08 11:58:26;;;;;;;13.30;8.65;;;17.50;99.90;;;;;;4970935;28;20081;-65
2022/09/08 12:01:21;;;;;;;10.80;8.77;;;17.60;99.90;;;;;;4972774;28;20055;-66
2022/09/08 12:04:19;;;;;;;11.00;9.88;;;17.60;99.90;;;;;;4981710;28;20036;-67
2022/09/08 12:07:06;;;;;;;13.38;10.52;;;17.70;99.90;;;;;;5054528;28;20146;-66
2022/09/08 12:09:54;;;;;;;13.38;10.35;;;17.70;99.90;;;;;;5054572;28;20166;-67
2022/09/08 12:12:49;;;;;;;11.85;10.38;;;17.70;99.90;;;;;;5054118;28;20519;-67
2022/09/08 12:15:51;;;;;;;10.88;9.77;;;17.70;99.90;;;;;;5048727;28;20155;-67
2022/09/08 12:18:59;;;;;;;12.38;10.65;;;17.80;99.90;;;;;;5074755;28;20531;-66
2022/09/08 12:21:32;;;;;;;11.38;10.25;;;17.80;99.90;;;;;;5074010;28;20063;-67
2022/09/08 12:24:14;;;;;;;12.70;10.02;;;17.90;99.90;;;;;;5073826;28;20048;-66
2022/09/08 12:26:51;;;;;;;10.85;9.80;;;18.00;99.90;;;;;;5113394;27;20140;-67
2022/09/08 12:29:30;;;;;;;12.52;10.55;;;18.10;99.90;;;;;;5133711;27;20110;-66
2022/09/08 12:32:04;;;;;;;11.35;10.25;;;18.20;99.90;;;;;;5133229;27;20042;-67
2022/09/08 12:34:59;;;;;;;11.98;10.13;;;18.20;99.90;;;;;;5115542;27;20083;-65
2022/09/08 12:37:47;;;;;;;10.35;9.20;;;18.30;99.90;;;;;;5133253;27;20047;-66
2022/09/08 12:40:14;;;;;;;10.88;9.63;;;18.40;99.90;;;;;;5133115;27;20039;-67
2022/09/08 12:43:02;;;;;;;10.55;9.45;;;18.50;99.90;;;;;;5133115;27;20043;-67
2022/09/08 12:45:53;;;;;;;11.15;9.77;;;18.60;99.90;;;;;;5115199;27;20047;-68
2022/09/08 12:48:19;;;;;;;11.05;9.10;;;18.70;99.90;;;;;;5133301;27;20055;-66
2022/09/08 12:51:10;;;;;;;12.20;10.40;;;18.70;99.90;;;;;;5132926;27;20390;-67
2022/09/08 12:53:57;;;;;;;11.13;9.70;;;18.80;99.90;;;;;;5133006;27;20405;-67
2022/09/08 12:56:46;;;;;;;10.88;9.77;;;18.80;99.90;;;;;;5132815;27;20043;-65
2022/09/08 12:59:36;;;;;;;11.60;10.13;;;18.90;99.90;;;;;;5017327;28;20124;-66
2022/09/08 13:02:24;;;;;;;11.38;9.52;;;19.00;99.90;;;;;;5033811;28;20466;-65
2022/09/08 13:05:03;;;;;;;11.75;9.63;;;19.10;99.90;;;;;;5033989;28;20083;-67
2022/09/08 13:07:37;;;;;;;13.68;9.57;;;19.10;99.90;;;;;;5033489;28;20098;-67
2022/09/08 13:10:26;;;;;;;10.68;9.60;;;19.10;99.90;;;;;;5032322;28;20048;-66
2022/09/08 13:13:19;;;;;;;10.32;9.25;;;19.20;99.90;;;;;;5033707;28;20078;-68
2022/09/08 13:16:06;;;;;;;9.75;8.75;;;19.20;99.90;;;;;;5033641;28;20498;-64
2022/09/08 13:19:05;;;;;;;11.40;10.30;;;19.20;99.90;;;;;;5033494;28;20033;-67
2022/09/08 13:21:39;;;;;;;11.48;9.95;;;19.10;99.90;;;;;;5033923;28;20078;-67